• Join FlightAware (Why Join?)
  • Login
  • US Flag 
02:38PM EST


 

Airport Tracker/Info


-or-


 

Live Flight TrackerFlight Track Log ✈ GTH71 ✈ 30-Jun-2013 ✈ 5B2 - KTEB

Flight Track Log - Related Links

Times and Time Zones

All times are in EDT time to prevent confusion due to time zone crossing. See the GTH71 flight status page for this flight to view local times or setup timezone preferences in your user account.

Time Position Orientation Groundspeed Altitude Reporting Facility
EDT Latitude Longitude Course Direction KTS MPH feet Rate Location/Type
08:40PM 43.0375 -73.8775 187° South 147 169 1,600  Level Boston Center
08:41PM 43.0061 -73.8825 187° South 187 215 3,500 2,580 Climbing Boston Center
08:41PM 42.9542 -73.8669 168° South 256 295 5,200 2,460 Climbing Boston Center
08:42PM 42.8878 -73.8456 167° South 279 321 7,900 2,460 Climbing Boston Center
08:44PM 42.7900 -73.8208 169° South 279 321 10,700 1,740 Climbing Boston Center
08:45PM 42.7044 -73.8331 186° South 293 337 11,800 600 Climbing Boston Center
08:46PM 42.6225 -73.8989 211° Southwest 312 359 12,000 60 Climbing Boston Center
08:47PM 42.5425 -73.9561 208° Southwest 320 368 12,000  Level Boston Center
08:48PM 42.4667 -74.0133 209° Southwest 334 384 12,100  Climbing Boston Center
08:49PM 42.3781 -74.0786 209° Southwest 334 384 12,000 -120 Descending Boston Center
08:50PM 42.2917 -74.1408 208° Southwest 345 397 11,900 -60 Descending Boston Center
08:51PM 42.2181 -74.1978 210° Southwest 345 397 11,900  Level Boston Center
08:52PM 42.1253 -74.2625 207° Southwest 345 397 11,900  Level Boston Center
08:53PM 42.0514 -74.3189 210° Southwest 345 397 12,000  Climbing Boston Center
08:54PM 41.9586 -74.3833 207° Southwest 340 391 11,900 -780 Descending Boston Center
08:55PM 41.8678 -74.4500 209° Southwest 325 374 10,400 -1,140 Descending Boston Center
08:56PM 41.8067 -74.4928 208° Southwest 290 334 9,500 -1,080 Descending Boston Center
08:57PM 41.7308 -74.5347 202° Southwest 272 313 8,300 -1,140 Descending Boston Center
08:58PM 41.6639 -74.5408 184° South 267 307 7,300 -1,080 Descending Boston Center
08:59PM 41.5844 -74.5578 189° South 267 307 6,200 -660 Descending Boston Center
09:00PM 41.5217 -74.5694 188° South 267 307 6,000 -120 Descending Boston Center
09:01PM 41.4442 -74.5864 189° South 261 300 6,000  Level Boston Center
09:02PM 41.3667 -74.6000 188° South 254 292 6,000  Level New York TRACON
09:03PM 41.3000 -74.6333 201° Southwest 252 290 6,000 -240 Level New York TRACON
09:04PM 41.2333 -74.6500 191° South 253 291 5,600 -900 Descending New York TRACON
09:05PM 41.1667 -74.6333 169° South 248 285 4,300 -900 Descending New York TRACON
09:06PM 41.1167 -74.5833 143° Southeast 250 288 4,000 -600 Descending New York TRACON
09:07PM 41.1000 -74.4833 102° East 252 290 3,100 -480 Descending New York TRACON
09:08PM 41.0667 -74.4000 118° Southeast 247 284 3,100  Level New York TRACON
09:09PM 41.0500 -74.3167 105° East 254 292 3,100 -60 Level New York TRACON
09:10PM 41.0333 -74.2167 102° East 252 290 3,000 -600 Descending New York TRACON
09:11PM 41.0333 -74.1333 90° East 252 290 2,000 -540 Descending New York TRACON
09:12PM 41.0000 -74.0667 124° Southeast 189 217 2,000  Level New York TRACON
09:13PM 40.9500 -74.0500 166° South 175 201 2,000  Level New York TRACON